createdAt,value
2023-05-15T00:00:13.066Z,4.20
2023-05-15T00:02:44.044Z,6.72
2023-05-15T00:05:13.041Z,5.95
2023-05-15T00:07:42.119Z,4.75
2023-05-15T00:10:10.521Z,5.22
2023-05-15T00:12:38.818Z,4.55
2023-05-15T00:15:08.047Z,6.30
2023-05-15T00:17:36.201Z,4.95
2023-05-15T00:20:07.619Z,7.90
2023-05-15T00:22:35.632Z,6.70
2023-05-15T00:25:03.727Z,7.75
2023-05-15T00:27:31.750Z,5.47
2023-05-15T00:29:59.775Z,5.80
2023-05-15T00:32:27.829Z,4.85
2023-05-15T00:34:55.928Z,9.98
2023-05-15T00:37:26.040Z,5.53
2023-05-15T00:39:54.252Z,6.13
2023-05-15T00:42:24.825Z,15.68
2023-05-15T00:44:54.134Z,6.57
2023-05-15T00:47:22.538Z,6.53
2023-05-15T00:49:51.769Z,7.55
2023-05-15T00:52:21.844Z,9.02
2023-05-15T00:54:51.402Z,6.85
2023-05-15T00:57:20.146Z,6.47
2023-05-15T00:59:51.371Z,7.07
2023-05-15T01:02:20.001Z,5.43
2023-05-15T01:04:48.172Z,8.02
2023-05-15T01:07:16.628Z,8.00
2023-05-15T01:09:45.116Z,6.50
2023-05-15T01:12:16.946Z,6.20
2023-05-15T01:14:44.973Z,5.88
2023-05-15T01:17:13.569Z,6.38
2023-05-15T01:19:43.752Z,5.57
2023-05-15T01:22:36.266Z,7.80
2023-05-15T01:25:29.780Z,6.32
2023-05-15T01:28:04.718Z,6.15
2023-05-15T01:30:35.808Z,6.72
2023-05-15T01:33:09.759Z,8.23
2023-05-15T01:35:44.938Z,9.60
2023-05-15T01:38:20.398Z,6.95
2023-05-15T01:40:50.074Z,5.43
2023-05-15T01:43:23.988Z,6.43
2023-05-15T01:45:52.146Z,7.13
2023-05-15T01:48:21.534Z,7.93
2023-05-15T01:50:52.585Z,6.70
2023-05-15T01:53:21.836Z,6.18
2023-05-15T01:55:50.796Z,6.75
2023-05-15T01:58:21.282Z,7.38
2023-05-15T02:00:50.500Z,7.65
2023-05-15T02:03:19.738Z,7.30
2023-05-15T02:05:48.559Z,7.25
2023-05-15T02:08:17.471Z,8.27
2023-05-15T02:10:45.938Z,6.72
2023-05-15T02:13:15.091Z,8.75
2023-05-15T02:15:44.750Z,8.25
2023-05-15T02:18:13.324Z,8.32
2023-05-15T02:20:41.405Z,9.07
2023-05-15T02:23:09.492Z,8.95
2023-05-15T02:25:46.966Z,10.02
2023-05-15T02:28:22.150Z,7.28
2023-05-15T02:30:57.499Z,7.20
2023-05-15T02:33:36.898Z,7.68
2023-05-15T02:36:09.246Z,7.47
2023-05-15T02:38:42.189Z,7.38
2023-05-15T02:41:11.441Z,7.97
2023-05-15T02:43:41.266Z,6.25
2023-05-15T02:46:11.637Z,10.90
2023-05-15T02:48:42.417Z,8.10
2023-05-15T02:51:11.760Z,8.15
2023-05-15T02:53:41.331Z,7.32
2023-05-15T02:56:10.271Z,6.63
2023-05-15T02:58:39.054Z,7.88
2023-05-15T03:01:07.475Z,10.00
2023-05-15T03:03:37.005Z,6.72
2023-05-15T03:06:05.316Z,5.38
2023-05-15T03:08:33.440Z,6.10
2023-05-15T03:11:01.477Z,8.27
2023-05-15T03:13:29.588Z,10.80
2023-05-15T03:15:57.737Z,6.78
2023-05-15T03:18:25.847Z,6.05
2023-05-15T03:20:55.392Z,7.60
2023-05-15T03:23:23.447Z,8.20
2023-05-15T03:25:51.589Z,5.68
2023-05-15T03:28:19.653Z,5.32
2023-05-15T03:30:47.676Z,6.53
2023-05-15T03:33:16.007Z,6.43
2023-05-15T03:35:44.944Z,6.38
2023-05-15T03:38:14.424Z,6.40
2023-05-15T03:40:42.404Z,6.43
2023-05-15T03:43:10.678Z,7.15
2023-05-15T03:45:40.035Z,7.65
2023-05-15T03:48:08.323Z,6.35
2023-05-15T03:50:36.576Z,6.97
2023-05-15T03:53:04.629Z,8.40
2023-05-15T03:55:34.326Z,6.10
2023-05-15T03:58:02.358Z,8.35
2023-05-15T04:00:30.512Z,5.63
2023-05-15T04:02:58.568Z,8.48
2023-05-15T04:05:26.985Z,7.25
2023-05-15T04:07:55.495Z,6.05
2023-05-15T04:10:23.642Z,6.15
2023-05-15T04:12:53.236Z,5.55
2023-05-15T04:15:23.055Z,7.72
2023-05-15T04:17:52.906Z,7.90
2023-05-15T04:20:22.305Z,7.80
2023-05-15T04:22:51.685Z,6.95
2023-05-15T04:25:20.603Z,5.63
2023-05-15T04:27:49.442Z,7.57
2023-05-15T04:30:19.707Z,9.68
2023-05-15T04:32:47.817Z,7.88
2023-05-15T04:35:16.134Z,8.98
2023-05-15T04:37:45.686Z,8.60
2023-05-15T04:40:16.584Z,6.47
2023-05-15T04:42:45.018Z,12.18
2023-05-15T04:45:13.164Z,9.27
2023-05-15T04:47:43.012Z,11.10
2023-05-15T04:50:11.611Z,8.20
2023-05-15T04:52:39.735Z,8.13
2023-05-15T04:55:08.936Z,8.25
2023-05-15T04:57:37.071Z,8.27
2023-05-15T05:00:10.391Z,8.38
2023-05-15T05:02:38.544Z,9.60
2023-05-15T05:05:09.183Z,8.18
2023-05-15T05:07:37.435Z,8.35
2023-05-15T05:10:06.611Z,8.40
2023-05-15T05:12:34.744Z,8.63
2023-05-15T05:15:02.910Z,11.32
2023-05-15T05:17:31.797Z,9.35
2023-05-15T05:19:59.979Z,12.30
2023-05-15T05:22:29.571Z,12.13
2023-05-15T05:24:57.660Z,12.95
2023-05-15T05:27:26.625Z,8.77
2023-05-15T05:29:55.340Z,12.27
2023-05-15T05:32:23.965Z,13.23
2023-05-15T05:34:52.072Z,6.15
2023-05-15T05:37:20.127Z,10.75
2023-05-15T05:39:49.766Z,9.43
2023-05-15T05:42:17.806Z,9.77
2023-05-15T05:44:46.270Z,11.98
2023-05-15T05:47:14.830Z,10.77
2023-05-15T05:49:42.994Z,14.60
2023-05-15T05:52:11.011Z,11.20
2023-05-15T05:54:39.077Z,11.55
2023-05-15T05:57:09.057Z,11.02
2023-05-15T05:59:37.411Z,11.52
2023-05-15T06:02:05.998Z,10.57
2023-05-15T06:04:34.638Z,10.07
2023-05-15T06:07:03.146Z,11.93
2023-05-15T06:09:31.300Z,12.60
2023-05-15T06:12:00.754Z,12.20
2023-05-15T06:14:30.346Z,10.13
2023-05-15T06:16:58.661Z,12.05
2023-05-15T06:19:26.861Z,11.02
2023-05-15T06:21:54.892Z,11.95
2023-05-15T06:24:23.028Z,8.48
2023-05-15T06:26:52.354Z,9.35
2023-05-15T06:29:21.689Z,14.32
2023-05-15T06:31:51.174Z,8.70
2023-05-15T06:34:19.421Z,9.60
2023-05-15T06:36:48.362Z,7.97
2023-05-15T06:39:16.451Z,9.40
2023-05-15T06:41:44.591Z,9.15
2023-05-15T06:44:12.595Z,10.10
2023-05-15T06:46:40.994Z,10.07
2023-05-15T06:49:10.441Z,10.82
2023-05-15T06:51:38.627Z,11.18
2023-05-15T06:54:07.098Z,9.05
2023-05-15T06:56:35.052Z,8.73
2023-05-15T06:59:03.125Z,7.88
2023-05-15T07:01:32.210Z,8.60
2023-05-15T07:04:00.330Z,7.90
2023-05-15T07:06:32.036Z,8.88
2023-05-15T07:09:00.564Z,6.13
2023-05-15T07:11:29.429Z,7.95
2023-05-15T07:13:57.528Z,9.77
2023-05-15T07:16:25.817Z,8.48
2023-05-15T07:18:53.769Z,6.40
2023-05-15T07:21:21.985Z,8.32
2023-05-15T07:23:51.513Z,6.53
2023-05-15T07:26:31.095Z,8.90
2023-05-15T07:29:02.706Z,8.38
2023-05-15T07:31:31.690Z,6.85
2023-05-15T07:33:59.903Z,6.15
2023-05-15T07:36:28.637Z,7.38
2023-05-15T07:38:58.507Z,4.82
2023-05-15T07:41:27.570Z,8.20
2023-05-15T07:43:56.852Z,6.63
2023-05-15T07:46:26.629Z,5.75
2023-05-15T07:48:54.745Z,5.88
2023-05-15T07:51:23.023Z,5.82
2023-05-15T07:53:51.590Z,8.07
2023-05-15T07:56:22.010Z,5.90
2023-05-15T07:58:50.610Z,6.07
2023-05-15T08:01:18.969Z,4.88
2023-05-15T08:03:47.608Z,4.65
2023-05-15T08:06:16.361Z,4.22
2023-05-15T08:08:44.545Z,5.13
2023-05-15T08:11:12.878Z,6.32
2023-05-15T08:13:42.719Z,5.22
2023-05-15T08:16:11.050Z,5.68
2023-05-15T08:18:39.198Z,5.63
2023-05-15T08:21:07.818Z,5.13
2023-05-15T08:23:35.923Z,5.38
2023-05-15T08:26:04.726Z,6.93
2023-05-15T08:28:32.807Z,5.00
2023-05-15T08:31:02.564Z,6.10
2023-05-15T08:33:30.809Z,6.18
2023-05-15T08:35:59.578Z,10.20
2023-05-15T08:38:28.041Z,5.30
2023-05-15T08:41:00.751Z,5.32
2023-05-15T08:43:33.311Z,6.07
2023-05-15T08:46:03.698Z,7.05
2023-05-15T08:48:32.753Z,5.30
2023-05-15T08:51:01.748Z,6.13
2023-05-15T08:53:30.762Z,5.28
2023-05-15T08:55:59.344Z,6.53
2023-05-15T08:58:28.892Z,4.47
2023-05-15T09:00:58.880Z,6.75
2023-05-15T09:03:28.564Z,4.65
2023-05-15T09:05:57.837Z,5.63
2023-05-15T09:08:27.702Z,5.03
2023-05-15T09:10:57.769Z,4.32
2023-05-15T09:13:26.347Z,3.92
2023-05-15T09:15:55.038Z,4.35
2023-05-15T09:18:24.278Z,3.78
2023-05-15T09:20:56.076Z,6.78
2023-05-15T09:23:26.542Z,3.97
2023-05-15T09:25:57.061Z,5.30
2023-05-15T09:28:30.672Z,2.95
2023-05-15T09:31:01.303Z,4.47
2023-05-15T09:33:31.634Z,3.00
2023-05-15T09:36:01.913Z,3.22
2023-05-15T09:38:30.993Z,3.58
2023-05-15T09:41:03.852Z,4.35
2023-05-15T09:43:35.288Z,3.17
2023-05-15T09:46:04.348Z,3.65
2023-05-15T09:48:33.413Z,2.28
2023-05-15T09:51:05.888Z,2.55
2023-05-15T09:53:34.880Z,3.75
2023-05-15T09:56:04.978Z,4.75
2023-05-15T09:58:33.253Z,4.13
2023-05-15T10:01:02.976Z,3.75
2023-05-15T10:03:31.730Z,4.20
2023-05-15T10:06:05.071Z,4.70
2023-05-15T10:08:34.564Z,5.47
2023-05-15T10:11:04.830Z,3.50
2023-05-15T10:13:35.682Z,2.55
2023-05-15T10:16:05.413Z,6.22
2023-05-15T10:18:37.590Z,5.43
2023-05-15T10:21:09.221Z,2.03
2023-05-15T10:23:38.911Z,1.92
2023-05-15T10:26:12.720Z,1.13
2023-05-15T10:28:44.764Z,1.55
2023-05-15T10:31:14.196Z,1.27
2023-05-15T10:33:45.052Z,1.50
2023-05-15T10:36:16.496Z,2.10
2023-05-15T10:38:46.102Z,1.80
2023-05-15T10:41:18.244Z,2.95
2023-05-15T10:43:47.766Z,2.95
2023-05-15T10:46:17.042Z,2.63
2023-05-15T10:48:45.478Z,2.85
2023-05-15T10:51:19.763Z,3.10
2023-05-15T10:53:48.349Z,3.42
2023-05-15T10:56:17.912Z,2.30
2023-05-15T10:58:48.733Z,2.33
2023-05-15T11:01:32.419Z,2.72
2023-05-15T11:04:12.792Z,4.18
2023-05-15T11:06:44.397Z,2.50
2023-05-15T11:09:37.328Z,2.78
2023-05-15T11:12:06.711Z,1.95
2023-05-15T11:14:40.724Z,2.38
2023-05-15T11:19:40.868Z,3.72
2023-05-15T11:22:22.006Z,2.50
2023-05-15T11:24:56.880Z,2.72
2023-05-15T11:27:26.598Z,2.50
2023-05-15T11:30:16.270Z,3.38
2023-05-15T11:32:52.486Z,2.85
2023-05-15T11:35:23.559Z,3.33
2023-05-15T11:37:55.421Z,2.90
2023-05-15T11:40:26.420Z,3.55
2023-05-15T11:43:07.075Z,5.88
2023-05-15T11:45:37.481Z,3.33
2023-05-15T11:48:09.096Z,3.22
2023-05-15T11:50:38.061Z,3.95
2023-05-15T11:53:10.951Z,3.85
2023-05-15T11:55:40.384Z,3.45
2023-05-15T11:58:15.863Z,4.22
2023-05-15T12:00:44.749Z,3.20
2023-05-15T12:03:19.202Z,3.28
2023-05-15T12:05:57.649Z,5.00
2023-05-15T12:08:32.578Z,3.17
2023-05-15T12:11:03.794Z,4.32
2023-05-15T12:13:32.786Z,3.53
2023-05-15T12:16:02.190Z,6.25
2023-05-15T12:18:31.314Z,3.15
2023-05-15T12:20:59.633Z,5.93
2023-05-15T12:23:29.555Z,2.88
2023-05-15T12:26:02.221Z,2.38
2023-05-15T12:28:31.082Z,3.22
2023-05-15T12:31:00.781Z,4.28
2023-05-15T12:33:29.174Z,3.13
2023-05-15T12:36:01.185Z,3.33
2023-05-15T12:38:34.321Z,3.65
2023-05-15T12:41:02.716Z,5.25
2023-05-15T12:43:32.797Z,3.50
2023-05-15T12:46:01.518Z,3.17
2023-05-15T12:48:33.989Z,7.38
2023-05-15T12:51:09.714Z,6.85
2023-05-15T12:53:40.281Z,10.35
2023-05-15T12:56:09.797Z,6.10
2023-05-15T12:58:42.103Z,8.52
2023-05-15T13:01:10.431Z,6.88
2023-05-15T13:03:39.180Z,5.03
2023-05-15T13:06:08.364Z,5.75
2023-05-15T13:08:45.707Z,9.27
2023-05-15T13:11:15.274Z,6.45
2023-05-15T13:13:48.059Z,4.72
2023-05-15T13:16:22.919Z,5.03
2023-05-15T13:18:51.454Z,5.60
2023-05-15T13:21:20.242Z,7.22
2023-05-15T13:23:50.397Z,4.95
2023-05-15T13:26:18.936Z,7.30
2023-05-15T13:28:47.193Z,4.55
2023-05-15T13:31:15.742Z,4.68
2023-05-15T13:33:43.953Z,3.45
2023-05-15T13:36:13.489Z,3.70
2023-05-15T13:38:41.597Z,3.70
2023-05-15T13:41:11.758Z,3.33
2023-05-15T13:43:40.135Z,3.58
2023-05-15T13:46:08.535Z,3.38
2023-05-15T13:48:39.990Z,3.72
2023-05-15T13:51:11.352Z,3.00
2023-05-15T13:53:39.488Z,3.30
2023-05-15T13:56:08.740Z,4.28
2023-05-15T13:58:41.063Z,3.30
2023-05-15T14:01:09.763Z,5.57
2023-05-15T14:03:39.879Z,4.18
2023-05-15T14:06:17.040Z,3.35
2023-05-15T14:08:48.696Z,3.33
2023-05-15T14:11:16.831Z,4.07
2023-05-15T14:13:47.508Z,4.72
2023-05-15T14:16:15.993Z,4.05
2023-05-15T14:18:44.469Z,3.45
2023-05-15T14:21:12.634Z,4.43
2023-05-15T14:23:41.002Z,6.95
2023-05-15T14:26:09.459Z,3.05
2023-05-15T14:28:37.634Z,3.75
2023-05-15T14:31:07.593Z,4.60
2023-05-15T14:33:36.255Z,3.00
2023-05-15T14:36:05.533Z,4.03
2023-05-15T14:38:34.178Z,4.15
2023-05-15T14:41:03.069Z,4.63
2023-05-15T14:43:31.300Z,4.70
2023-05-15T14:45:59.796Z,3.25
2023-05-15T14:48:30.226Z,5.88
2023-05-15T14:50:59.616Z,4.18
2023-05-15T14:53:28.760Z,3.97
2023-05-15T14:55:59.057Z,4.05
2023-05-15T14:58:27.974Z,3.60
2023-05-15T15:00:56.876Z,5.93
2023-05-15T15:03:28.627Z,5.13
2023-05-15T15:05:59.647Z,4.63
2023-05-15T15:08:28.312Z,3.80
2023-05-15T15:10:56.839Z,2.70
2023-05-15T15:13:27.082Z,5.25
2023-05-15T15:15:56.184Z,4.80
2023-05-15T15:18:24.309Z,5.25
2023-05-15T15:20:53.928Z,6.32
2023-05-15T15:23:24.768Z,7.03
2023-05-15T15:25:54.283Z,3.15
2023-05-15T15:28:23.339Z,3.75
2023-05-15T15:30:53.789Z,4.35
2023-05-15T15:33:22.102Z,3.13
2023-05-15T15:35:50.241Z,6.05
2023-05-15T15:38:18.557Z,3.15
2023-05-15T15:40:48.637Z,3.22
2023-05-15T15:43:17.707Z,3.17
2023-05-15T15:45:46.189Z,3.15
2023-05-15T15:48:14.686Z,2.97
2023-05-15T15:50:43.475Z,4.13
2023-05-15T15:53:11.680Z,3.75
2023-05-15T15:55:39.872Z,2.60
2023-05-15T15:58:09.694Z,5.00
2023-05-15T16:00:38.693Z,2.50
2023-05-15T16:03:07.139Z,2.75
2023-05-15T16:05:35.628Z,5.13
2023-05-15T16:08:04.190Z,2.97
2023-05-15T16:10:32.768Z,2.83
2023-05-15T16:13:01.474Z,2.97
2023-05-15T16:15:31.078Z,3.30
2023-05-15T16:17:59.591Z,3.65
2023-05-15T16:20:28.200Z,3.33
2023-05-15T16:22:56.624Z,3.40
2023-05-15T16:25:24.998Z,4.53
2023-05-15T16:27:53.092Z,2.92
2023-05-15T16:30:21.795Z,3.60
2023-05-15T16:32:52.252Z,3.53
2023-05-15T16:35:22.457Z,4.43
2023-05-15T16:37:50.853Z,4.28
2023-05-15T16:40:19.120Z,3.53
2023-05-15T16:42:47.725Z,6.40
2023-05-15T16:45:16.687Z,3.70
2023-05-15T16:47:45.028Z,4.63
2023-05-15T16:50:15.260Z,6.93
2023-05-15T16:52:46.176Z,3.83
2023-05-15T16:55:16.611Z,5.10
2023-05-15T16:57:45.392Z,5.10
2023-05-15T17:00:14.803Z,3.53
2023-05-15T17:02:44.168Z,4.18
2023-05-15T17:05:15.438Z,4.15
2023-05-15T17:07:45.472Z,5.88
2023-05-15T17:10:14.478Z,5.57
2023-05-15T17:12:42.551Z,4.05
2023-05-15T17:15:11.198Z,6.85
2023-05-15T17:17:39.803Z,3.47
2023-05-15T17:20:08.986Z,6.07
2023-05-15T17:22:38.931Z,4.03
2023-05-15T17:25:08.475Z,3.17
2023-05-15T17:27:39.945Z,4.00
2023-05-15T17:30:09.621Z,4.38
2023-05-15T17:32:39.125Z,7.47
2023-05-15T17:35:08.396Z,2.67
2023-05-15T17:37:36.675Z,5.05
2023-05-15T17:40:09.050Z,4.05
2023-05-15T17:42:37.695Z,4.15
2023-05-15T17:45:06.953Z,4.93
2023-05-15T17:47:35.178Z,4.30
2023-05-15T17:50:03.738Z,6.15
2023-05-15T17:52:32.132Z,4.55
2023-05-15T17:55:00.469Z,4.03
2023-05-15T17:57:29.984Z,5.78
2023-05-15T17:59:58.745Z,5.00
2023-05-15T18:02:27.127Z,5.65
2023-05-15T18:04:55.565Z,4.72
2023-05-15T18:07:23.967Z,6.03
2023-05-15T18:09:52.163Z,3.97
2023-05-15T18:12:21.929Z,4.38
2023-05-15T18:14:51.694Z,5.13
2023-05-15T18:17:20.697Z,3.53
2023-05-15T18:19:48.938Z,7.60
2023-05-15T18:22:17.405Z,3.30
2023-05-15T18:24:46.870Z,5.40
2023-05-15T18:27:15.001Z,4.90
2023-05-15T18:29:44.957Z,5.25
2023-05-15T18:32:15.195Z,3.97
2023-05-15T18:34:43.650Z,3.75
2023-05-15T18:37:12.102Z,4.25
2023-05-15T18:39:41.993Z,5.78
2023-05-15T18:42:10.328Z,3.13
2023-05-15T18:44:38.723Z,3.92
2023-05-15T18:47:07.194Z,2.95
2023-05-15T18:49:37.694Z,4.93
2023-05-15T18:52:07.157Z,3.05
2023-05-15T18:54:35.543Z,4.18
2023-05-15T18:57:03.980Z,3.80
2023-05-15T18:59:32.336Z,3.58
2023-05-15T19:02:00.495Z,3.05
2023-05-15T19:04:28.715Z,2.97
2023-05-15T19:06:58.344Z,2.30
2023-05-15T19:09:26.447Z,3.10
2023-05-15T19:11:54.718Z,3.40
2023-05-15T19:14:23.180Z,2.78
2023-05-15T19:16:51.677Z,3.88
2023-05-15T19:19:20.244Z,2.92
2023-05-15T19:21:50.642Z,2.70
2023-05-15T19:24:20.432Z,2.90
2023-05-15T19:26:48.714Z,4.63
2023-05-15T19:29:18.275Z,3.15
2023-05-15T19:31:46.594Z,2.05
2023-05-15T19:34:16.184Z,2.47
2023-05-15T19:36:46.082Z,2.35
2023-05-15T19:39:14.186Z,3.17
2023-05-15T19:41:44.106Z,2.53
2023-05-15T19:44:14.934Z,4.25
2023-05-15T19:46:45.219Z,2.80
2023-05-15T19:49:14.235Z,2.58
2023-05-15T19:51:42.523Z,2.13
2023-05-15T19:54:12.099Z,1.83
2023-05-15T19:56:40.528Z,2.42
2023-05-15T19:59:10.059Z,2.83
2023-05-15T20:01:38.715Z,2.08
2023-05-15T20:04:07.525Z,2.55
2023-05-15T20:06:36.463Z,4.75
2023-05-15T20:09:05.370Z,2.55
2023-05-15T20:11:34.358Z,4.72
2023-05-15T20:14:02.647Z,5.03
2023-05-15T20:16:32.332Z,2.03
2023-05-15T20:19:01.270Z,3.67
2023-05-15T20:21:29.522Z,2.13
2023-05-15T20:23:58.017Z,2.45
2023-05-15T20:26:26.442Z,2.75
2023-05-15T20:28:55.108Z,4.53
2023-05-15T20:31:23.552Z,5.40
2023-05-15T20:33:53.449Z,2.95
2023-05-15T20:36:25.339Z,2.40
2023-05-15T20:38:55.246Z,2.83
2023-05-15T20:41:24.360Z,3.72
2023-05-15T20:43:52.827Z,3.75
2023-05-15T20:46:21.041Z,2.47
2023-05-15T20:48:49.496Z,4.00
2023-05-15T20:51:19.098Z,2.97
2023-05-15T20:53:47.176Z,3.00
2023-05-15T20:56:15.402Z,2.88
2023-05-15T20:58:44.727Z,2.47
2023-05-15T21:01:14.363Z,3.10
2023-05-15T21:03:43.331Z,3.50
2023-05-15T21:06:11.564Z,3.33
2023-05-15T21:08:41.096Z,3.97
2023-05-15T21:11:09.218Z,3.63
2023-05-15T21:13:37.224Z,5.57
2023-05-15T21:16:05.881Z,3.42
2023-05-15T21:18:34.592Z,3.60
2023-05-15T21:21:07.293Z,3.80
2023-05-15T21:23:36.780Z,3.47
2023-05-15T21:26:06.635Z,5.90
2023-05-15T21:28:36.159Z,4.13
2023-05-15T21:31:08.391Z,4.03
2023-05-15T21:33:37.066Z,4.53
2023-05-15T21:36:05.488Z,4.40
2023-05-15T21:38:34.101Z,4.50
2023-05-15T21:41:03.466Z,3.83
2023-05-15T21:43:33.445Z,5.20
2023-05-15T21:46:01.585Z,5.85
2023-05-15T21:48:29.761Z,4.53
2023-05-15T21:50:58.005Z,4.97
2023-05-15T21:53:27.077Z,10.27
2023-05-15T21:55:56.798Z,7.65
2023-05-15T21:58:24.852Z,5.85
2023-05-15T22:00:54.918Z,9.45
2023-05-15T22:03:23.332Z,6.13
2023-05-15T22:05:53.004Z,7.28
2023-05-15T22:08:21.315Z,6.55
2023-05-15T22:10:49.603Z,5.60
2023-05-15T22:13:18.406Z,6.38
2023-05-15T22:15:46.725Z,6.57
2023-05-15T22:18:16.141Z,6.47
2023-05-15T22:20:44.635Z,5.72
2023-05-15T22:23:12.689Z,5.22
2023-05-15T22:25:40.800Z,5.18
2023-05-15T22:28:09.059Z,9.07
2023-05-15T22:30:37.298Z,5.43
2023-05-15T22:33:06.386Z,5.70
2023-05-15T22:35:36.007Z,7.07
2023-05-15T22:38:05.882Z,10.00
2023-05-15T22:40:33.954Z,6.93
2023-05-15T22:43:02.480Z,5.00
2023-05-15T22:45:30.443Z,4.53
2023-05-15T22:47:58.664Z,6.05
2023-05-15T22:50:27.352Z,8.13
2023-05-15T22:52:57.039Z,8.95
2023-05-15T22:55:25.033Z,9.35
2023-05-15T22:57:53.443Z,7.32
2023-05-15T23:00:21.950Z,7.70
2023-05-15T23:02:50.478Z,7.93
2023-05-15T23:05:18.836Z,6.80
2023-05-15T23:07:47.586Z,6.50
2023-05-15T23:10:17.484Z,6.45
2023-05-15T23:12:46.443Z,6.93
2023-05-15T23:15:14.846Z,7.45
2023-05-15T23:17:43.733Z,7.15
2023-05-15T23:20:13.100Z,5.03
2023-05-15T23:22:41.347Z,5.80
2023-05-15T23:25:10.280Z,5.07
2023-05-15T23:27:39.796Z,6.90
2023-05-15T23:30:10.121Z,12.32
2023-05-15T23:32:38.188Z,13.10
2023-05-15T23:35:07.084Z,7.68
2023-05-15T23:37:35.310Z,6.22
2023-05-15T23:40:05.466Z,6.85
2023-05-15T23:42:33.639Z,9.70
2023-05-15T23:45:03.330Z,7.57
2023-05-15T23:47:31.316Z,7.07
2023-05-15T23:50:00.404Z,7.60
2023-05-15T23:52:28.441Z,6.20
2023-05-15T23:54:56.986Z,5.63
2023-05-15T23:57:25.503Z,6.03
2023-05-15T23:59:53.480Z,6.68
